Baltimore, Maryland
Traffic Map
Current Weather Conditions
Baltimore, Maryland
Broken Clouds
Broken Clouds
10°
Feels Like: 10°
Wind Chill: 10° Ceiling: 11000
Heat Index: 10° Visibility: 10mi
Dew Point: Wind: 0mph
Humidity: 93% Direction: ° ()
Pressure: 29.86in Gusts: 0mph
Raw Report DataKBWI 210854Z 00000KT 10SM FEW090 BKN110 10/09 A2986 RMK AO2 RAB14E27 SLP110 P0000 60000 T01000089 56014
Traffic Incident Summary
Active as of:
Severity:
Category:
InformationThere was an issue retrieving the traffic information for this location. Please try a different location or try again shortly.
Advertisements
Track Severe Weather on mobile